Time;durP1;ratioP1;P1;durP2;ratioP2;P2;SDS_P1;SDS_P2;PMS_P1;PMS_P2;Temp;Humidity;BMP_temperature;BMP_pressure;BME280_temperature;BME280_humidity;BME280_pressure;Samples;Min_cycle;Max_cycle;Signal;HPM_P1;HPM_P2
2022/06/27 00:01:46;;;;;;;1.13;0.70;;;;;;;22.01;100.00;97991.97;15269351;19;20018;-57
2022/06/27 00:06:53;;;;;;;1.65;0.80;;;;;;;21.83;100.00;98004.81;15287240;19;20015;-57
2022/06/27 00:11:59;;;;;;;1.35;0.65;;;;;;;21.84;100.00;97995.50;15285033;19;20010;-57
2022/06/27 00:17:08;;;;;;;1.58;0.77;;;;;;;21.83;100.00;97993.84;15281564;19;20023;-58
2022/06/27 00:22:15;;;;;;;2.45;0.90;;;;;;;21.81;100.00;98004.25;15284263;19;20006;-58
2022/06/27 00:27:21;;;;;;;3.05;0.85;;;;;;;21.70;100.00;98002.34;15286103;19;20014;-56
2022/06/27 00:32:27;;;;;;;0.98;0.82;;;;;;;21.68;100.00;97999.03;15279615;19;20022;-57
2022/06/27 00:37:34;;;;;;;1.58;0.90;;;;;;;21.71;100.00;97984.81;15285683;19;20027;-58
2022/06/27 00:42:41;;;;;;;1.10;0.80;;;;;;;21.68;100.00;97979.84;15281979;19;20362;-57
2022/06/27 00:47:47;;;;;;;1.67;0.70;;;;;;;21.68;100.00;97980.66;15281843;19;20472;-58
2022/06/27 00:52:55;;;;;;;1.60;0.80;;;;;;;21.72;100.00;97983.75;15281529;19;20022;-57
2022/06/27 00:58:02;;;;;;;2.08;0.80;;;;;;;21.71;100.00;97990.31;15284915;19;20715;-57
2022/06/27 01:03:07;;;;;;;2.05;0.70;;;;;;;21.70;100.00;98000.47;15279973;19;20043;-57
2022/06/27 01:08:16;;;;;;;4.03;0.80;;;;;;;21.70;100.00;98007.81;15279662;19;20015;-56
2022/06/27 01:13:22;;;;;;;1.02;0.70;;;;;;;21.68;100.00;98023.72;15278754;19;20150;-56
2022/06/27 01:18:28;;;;;;;0.60;0.60;;;;;;;21.69;100.00;98030.88;15282079;19;20780;-56
2022/06/27 01:23:36;;;;;;;1.20;0.80;;;;;;;21.71;100.00;98028.69;15271322;19;20486;-57
2022/06/27 01:28:41;;;;;;;0.80;0.75;;;;;;;21.70;100.00;98030.63;15280719;19;20018;-57
2022/06/27 01:33:46;;;;;;;1.08;0.80;;;;;;;21.72;100.00;98026.78;15276632;19;20377;-58
2022/06/27 01:38:57;;;;;;;0.60;0.60;;;;;;;21.72;100.00;98041.31;15275737;19;20011;-57
2022/06/27 01:44:02;;;;;;;0.93;0.70;;;;;;;21.73;100.00;98036.69;15276731;19;20017;-57
2022/06/27 01:49:09;;;;;;;0.68;0.50;;;;;;;21.73;100.00;98029.28;15280028;19;20023;-58
2022/06/27 01:54:19;;;;;;;0.70;0.70;;;;;;;21.73;100.00;98029.28;15269694;19;20010;-58
2022/06/27 01:59:27;;;;;;;2.45;0.70;;;;;;;21.71;100.00;98025.94;15279889;19;20021;-56
2022/06/27 02:04:35;;;;;;;;;;;;;;;21.68;100.00;98029.19;15280491;19;20010;-57
2022/06/27 02:09:44;;;;;;;0.73;0.60;;;;;;;21.66;100.00;98039.56;15274014;19;20042;-57
2022/06/27 02:14:51;;;;;;;0.80;0.57;;;;;;;21.64;100.00;98028.00;15274936;19;20035;-58
2022/06/27 02:20:06;;;;;;;0.63;0.55;;;;;;;21.54;100.00;98034.06;15277107;19;20031;-56
2022/06/27 02:25:15;;;;;;;1.00;0.90;;;;;;;21.36;100.00;98033.19;15269387;19;20014;-58
2022/06/27 02:36:04;;;;;;;0.82;0.80;;;;;;;21.02;100.00;98048.56;15278753;19;19971;-57
2022/06/27 02:41:16;;;;;;;1.15;0.80;;;;;;;20.93;100.00;98046.19;15276192;19;20048;-54
2022/06/27 02:46:21;;;;;;;0.80;0.80;;;;;;;20.83;100.00;98040.47;15274273;19;20018;-56
2022/06/27 02:51:31;;;;;;;1.58;0.80;;;;;;;20.75;100.00;98049.88;15273516;19;20496;-57
2022/06/27 02:56:44;;;;;;;2.08;0.90;;;;;;;20.71;100.00;98045.06;15267429;19;20475;-55
2022/06/27 03:01:51;;;;;;;1.33;0.70;;;;;;;20.68;100.00;98040.06;15273006;19;20011;-56
2022/06/27 03:07:05;;;;;;;0.80;0.70;;;;;;;20.57;100.00;98048.03;15275558;19;20472;-55
2022/06/27 03:12:15;;;;;;;0.80;0.80;;;;;;;20.57;100.00;98047.22;15273619;19;20265;-58
2022/06/27 03:17:24;;;;;;;2.40;0.75;;;;;;;20.49;100.00;98045.66;15268460;19;20043;-57
2022/06/27 03:22:48;;;;;;;0.73;0.73;;;;;;;20.45;100.00;98050.75;15270365;19;20022;-55
2022/06/27 03:27:56;;;;;;;0.73;0.60;;;;;;;20.41;100.00;98051.44;15272831;19;20031;-57
2022/06/27 03:33:02;;;;;;;2.17;0.90;;;;;;;20.38;100.00;98041.81;15264336;19;20022;-58
2022/06/27 03:38:14;;;;;;;1.10;0.85;;;;;;;20.36;100.00;98040.38;15277588;19;20031;-57
2022/06/27 03:43:23;;;;;;;1.02;0.77;;;;;;;20.35;100.00;98036.78;15282497;19;20020;-57
2022/06/27 03:54:19;;;;;;;1.30;0.90;;;;;;;20.27;100.00;98042.59;15279229;19;20018;-56
2022/06/27 03:59:27;;;;;;;2.20;0.90;;;;;;;20.24;100.00;98043.91;15285240;19;20038;-55
2022/06/27 04:04:37;;;;;;;0.70;0.70;;;;;;;20.21;100.00;98041.63;15273179;19;20569;-57
2022/06/27 04:09:43;;;;;;;1.45;0.82;;;;;;;20.20;100.00;98037.22;15274750;19;20010;-58
2022/06/27 04:14:52;;;;;;;1.00;0.80;;;;;;;20.18;100.00;98036.63;15279936;19;20018;-52
2022/06/27 04:20:24;;;;;;;1.38;0.80;;;;;;;20.26;100.00;98033.59;15281406;19;20039;-58
2022/06/27 04:25:34;;;;;;;0.88;0.75;;;;;;;20.31;100.00;98039.16;15285951;19;20539;-60
2022/06/27 04:30:47;;;;;;;0.93;0.80;;;;;;;20.38;100.00;98033.59;15281244;19;20014;-59
2022/06/27 04:35:52;;;;;;;1.02;0.80;;;;;;;20.47;100.00;98025.88;15271680;19;20036;-54
2022/06/27 04:40:58;;;;;;;0.60;0.60;;;;;;;20.61;100.00;98026.50;15282812;19;20010;-64
2022/06/27 04:46:08;;;;;;;2.60;0.60;;;;;;;20.83;100.00;98018.56;15284157;19;20015;-57
2022/06/27 04:51:32;;;;;;;0.63;0.50;;;;;;;21.10;100.00;98018.09;15276867;19;20089;-54
2022/06/27 04:56:41;;;;;;;2.17;0.68;;;;;;;21.34;100.00;98012.56;15281722;19;20014;-55
2022/06/27 05:01:50;;;;;;;0.98;0.65;;;;;;;21.59;100.00;98009.56;15281567;19;20043;-56
2022/06/27 05:06:58;;;;;;;2.15;0.60;;;;;;;21.82;100.00;98013.28;15273916;19;20104;-57
2022/06/27 05:12:03;;;;;;;0.52;0.52;;;;;;;22.04;100.00;98002.47;15280392;19;20348;-57
2022/06/27 05:17:10;;;;;;;1.02;0.60;;;;;;;22.27;100.00;98006.16;15281789;19;20037;-56
2022/06/27 05:22:16;;;;;;;1.40;0.70;;;;;;;22.45;100.00;97994.97;15276768;19;20018;-57
2022/06/27 05:27:23;;;;;;;0.93;0.60;;;;;;;22.58;100.00;97987.47;15277051;19;20018;-51
2022/06/27 05:32:31;;;;;;;1.30;0.60;;;;;;;22.75;100.00;97977.31;15279515;19;20010;-55
2022/06/27 05:37:37;;;;;;;1.23;0.60;;;;;;;22.90;100.00;97975.84;15275875;19;20042;-55
2022/06/27 05:42:44;;;;;;;1.58;0.50;;;;;;;23.06;100.00;97975.00;15275571;19;20374;-56
2022/06/27 05:48:01;;;;;;;1.73;0.60;;;;;;;23.20;100.00;97978.22;15277491;19;20014;-55
2022/06/27 05:53:10;;;;;;;0.60;0.60;;;;;;;23.32;100.00;97978.13;15274869;19;20369;-55
2022/06/27 05:58:18;;;;;;;0.60;0.50;;;;;;;23.40;100.00;97968.59;15274363;19;20393;-58
2022/06/27 06:03:29;;;;;;;0.57;0.50;;;;;;;23.41;100.00;97972.97;15274178;19;20379;-56
2022/06/27 06:08:36;;;;;;;2.25;0.73;;;;;;;23.41;100.00;97962.00;15278126;19;20006;-54
2022/06/27 06:13:43;;;;;;;0.40;0.40;;;;;;;23.53;100.00;97946.19;15267952;19;20475;-54
2022/06/27 06:18:53;;;;;;;2.83;0.60;;;;;;;23.65;100.00;97945.22;15277038;19;20535;-54
2022/06/27 06:23:59;;;;;;;1.52;0.63;;;;;;;23.87;100.00;97934.16;15276355;19;20018;-56
2022/06/27 06:29:11;;;;;;;3.30;0.57;;;;;;;24.15;100.00;97932.25;15271266;19;20019;-52
2022/06/27 06:34:21;;;;;;;0.47;0.45;;;;;;;24.41;100.00;97926.94;15270659;19;20033;-54
2022/06/27 06:39:26;;;;;;;2.53;0.75;;;;;;;24.64;100.00;97933.19;15274022;19;20100;-53
2022/06/27 06:44:31;;;;;;;1.15;0.65;;;;;;;24.85;100.00;97940.50;15270979;19;20022;-52
2022/06/27 06:50:02;;;;;;;0.95;0.60;;;;;;;25.06;100.00;97951.63;15275582;19;20413;-54
2022/06/27 06:55:09;;;;;;;0.85;0.73;;;;;;;25.27;100.00;97946.22;15275577;19;20038;-55
2022/06/27 07:00:15;;;;;;;0.95;0.68;;;;;;;25.46;100.00;97955.69;15273493;19;20023;-52
2022/06/27 07:05:31;;;;;;;1.67;0.55;;;;;;;25.30;100.00;97970.50;15275689;19;20475;-55
2022/06/27 07:10:36;;;;;;;1.27;0.70;;;;;;;25.35;100.00;97976.00;15274861;19;20007;-51
2022/06/27 07:15:43;;;;;;;1.10;0.70;;;;;;;25.03;100.00;98007.28;15279260;19;20421;-52
2022/06/27 07:20:52;;;;;;;1.85;0.70;;;;;;;24.88;100.00;98008.81;15287567;19;20039;-58
2022/06/27 07:25:57;;;;;;;2.40;0.70;;;;;;;24.89;100.00;98031.72;15290481;19;20051;-54
2022/06/27 07:31:08;;;;;;;1.05;0.70;;;;;;;24.97;100.00;98053.25;15286823;19;20035;-54
2022/06/27 07:36:17;;;;;;;2.53;0.70;;;;;;;24.82;100.00;98045.72;15281651;19;20007;-55
2022/06/27 07:41:24;;;;;;;0.73;0.68;;;;;;;24.81;100.00;98046.00;15285788;19;20687;-54
2022/06/27 07:46:29;;;;;;;4.78;0.75;;;;;;;24.77;100.00;98051.16;15282716;19;20145;-55
2022/06/27 07:51:38;;;;;;;2.05;0.75;;;;;;;24.82;100.00;98048.47;15285508;19;20082;-53
2022/06/27 07:56:43;;;;;;;1.45;0.70;;;;;;;25.06;100.00;98042.56;15283645;19;20027;-56
2022/06/27 08:02:06;;;;;;;1.15;0.70;;;;;;;25.19;100.00;98031.09;15284914;19;20014;-56
2022/06/27 08:07:13;;;;;;;3.67;0.88;;;;;;;25.33;100.00;98025.91;15284035;19;20015;-53
2022/06/27 08:12:18;;;;;;;0.95;0.65;;;;;;;25.56;100.00;98023.03;15287063;19;20022;-56
2022/06/27 08:17:23;;;;;;;1.90;0.60;;;;;;;25.71;100.00;98023.06;15283217;19;20018;-55
2022/06/27 08:22:31;;;;;;;0.98;0.70;;;;;;;25.87;100.00;98025.88;15277313;19;20010;-52
2022/06/27 08:27:37;;;;;;;0.85;0.70;;;;;;;25.98;100.00;98035.84;15284196;19;20242;-56
2022/06/27 08:32:42;;;;;;;2.53;0.80;;;;;;;26.14;100.00;98043.13;15284951;19;20022;-56
2022/06/27 08:37:50;;;;;;;1.63;0.80;;;;;;;26.34;100.00;98040.66;15280575;19;20614;-52
2022/06/27 08:42:57;;;;;;;0.95;0.88;;;;;;;26.55;100.00;98045.09;15284029;19;20026;-53
2022/06/27 08:48:07;;;;;;;1.17;0.80;;;;;;;26.71;100.00;98045.94;15282884;19;20017;-57
2022/06/27 08:53:16;;;;;;;1.27;0.87;;;;;;;26.69;100.00;98037.09;15277387;19;20014;-55
2022/06/27 08:58:23;;;;;;;1.38;0.68;;;;;;;26.77;100.00;98031.00;15283125;19;20027;-52
2022/06/27 09:03:29;;;;;;;2.35;0.70;;;;;;;26.85;100.00;98031.59;15281474;19;20051;-58
2022/06/27 09:08:54;;;;;;;2.22;0.85;;;;;;;26.98;100.00;98039.31;15283347;19;20032;-54
2022/06/27 09:13:59;;;;;;;1.52;0.80;;;;;;;27.16;100.00;98045.34;15280118;19;20027;-54
2022/06/27 09:19:04;;;;;;;1.73;0.68;;;;;;;27.36;100.00;98041.72;15282354;19;20111;-59
2022/06/27 09:24:12;;;;;;;1.20;0.63;;;;;;;27.51;100.00;98049.16;15272124;19;20475;-57
2022/06/27 09:29:19;;;;;;;0.93;0.70;;;;;;;27.60;100.00;98055.78;15282333;19;20014;-52
2022/06/27 09:34:26;;;;;;;0.60;0.60;;;;;;;27.68;100.00;98062.66;15278732;19;20014;-58
2022/06/27 09:39:41;;;;;;;1.30;0.60;;;;;;;27.79;96.59;98041.31;15281384;19;20491;-51
2022/06/27 09:44:48;;;;;;;1.08;0.55;;;;;;;27.93;90.71;98047.88;15278040;19;20014;-54
2022/06/27 09:49:59;;;;;;;0.82;0.50;;;;;;;28.04;92.44;98054.19;15281377;19;20019;-56
2022/06/27 09:55:10;;;;;;;1.92;0.70;;;;;;;28.02;89.81;98044.53;15271321;19;20006;-55
2022/06/27 10:00:16;;;;;;;1.45;0.70;;;;;;;28.22;85.94;98043.63;15278458;19;20021;-56
2022/06/27 10:05:22;;;;;;;1.15;0.43;;;;;;;28.40;83.50;98033.81;15278994;19;20011;-55
2022/06/27 10:10:30;;;;;;;1.52;0.50;;;;;;;28.50;78.77;98028.19;15278358;19;20014;-55
2022/06/27 10:15:35;;;;;;;0.60;0.50;;;;;;;28.61;77.22;98028.91;15272309;19;20357;-56
2022/06/27 10:20:47;;;;;;;0.77;0.40;;;;;;;28.76;74.04;98030.75;15278353;19;20014;-56
2022/06/27 10:25:56;;;;;;;0.60;0.45;;;;;;;28.82;70.99;98025.97;15278880;19;20047;-54
2022/06/27 10:31:02;;;;;;;1.17;0.50;;;;;;;29.03;69.38;98030.25;15271656;19;20019;-54
2022/06/27 10:36:13;;;;;;;0.65;0.40;;;;;;;29.17;71.46;98041.47;15275812;19;20014;-53
2022/06/27 10:41:43;;;;;;;1.17;0.50;;;;;;;29.16;69.58;98031.47;15276830;19;20104;-51
2022/06/27 10:46:48;;;;;;;2.92;0.40;;;;;;;29.42;71.82;98019.28;15270029;19;20433;-52
2022/06/27 10:51:54;;;;;;;0.95;0.40;;;;;;;29.55;71.45;98012.22;15275291;19;20018;-52
2022/06/27 10:57:02;;;;;;;2.92;0.52;;;;;;;29.68;68.08;98017.88;15274728;19;20579;-51
2022/06/27 11:02:12;;;;;;;1.17;0.50;;;;;;;29.87;70.29;98014.28;15269043;19;20022;-56
2022/06/27 11:07:17;;;;;;;2.73;0.40;;;;;;;29.98;70.87;98020.56;15275656;19;20010;-53
2022/06/27 11:12:35;;;;;;;3.10;0.40;;;;;;;29.92;66.05;98021.75;15273496;19;20035;-55
2022/06/27 11:17:43;;;;;;;1.83;0.43;;;;;;;30.17;64.69;98036.41;15270944;19;20082;-53
2022/06/27 11:22:52;;;;;;;1.70;0.60;;;;;;;30.31;62.96;98028.97;15270345;19;20010;-55
2022/06/27 11:31:57;;;;;;;0.70;0.50;;;;;;;30.26;66.93;98035.44;15272314;19;20418;-58
2022/06/27 11:33:29;;;;;;;1.70;0.57;;;;;;;30.29;69.68;98053.44;15265315;19;20010;-56
2022/06/27 11:38:44;;;;;;;3.00;0.60;;;;;;;30.40;69.88;98071.63;15267222;19;20117;-55
2022/06/27 11:43:58;;;;;;;1.20;0.68;;;;;;;30.47;67.93;98065.69;15270416;19;20809;-56
2022/06/27 11:49:06;;;;;;;2.72;0.65;;;;;;;29.94;70.05;98069.50;15274380;19;20018;-55
2022/06/27 11:54:14;;;;;;;1.30;0.60;;;;;;;29.80;67.81;98092.41;15265144;19;20078;-55
2022/06/27 11:59:22;;;;;;;1.90;0.52;;;;;;;29.50;67.77;98099.97;15256985;19;20027;-55
2022/06/27 12:04:29;;;;;;;1.65;0.80;;;;;;;29.30;68.72;98105.69;15274987;19;20074;-55
2022/06/27 12:15:26;;;;;;;1.73;0.60;;;;;;;29.27;76.05;98089.63;15285196;19;20428;-58
2022/06/27 12:20:35;;;;;;;4.40;0.50;;;;;;;29.18;74.84;98101.38;15285732;19;20483;-58
2022/06/27 12:25:40;;;;;;;1.20;0.50;;;;;;;29.24;75.85;98101.31;15280922;19;20049;-58
2022/06/27 12:30:47;;;;;;;1.25;0.30;;;;;;;29.10;75.02;98118.66;15282547;19;20018;-55
2022/06/27 12:35:52;;;;;;;2.13;0.40;;;;;;;28.80;75.60;98115.00;15278629;19;20018;-59
2022/06/27 12:41:11;;;;;;;3.63;0.50;;;;;;;28.71;77.16;98127.78;15282034;19;20021;-55
2022/06/27 12:46:20;;;;;;;2.33;0.50;;;;;;;27.70;90.61;98121.34;15286039;19;20010;-56
2022/06/27 12:51:27;;;;;;;3.33;0.60;;;;;;;27.38;94.96;98103.94;15283232;19;20085;-56
2022/06/27 12:56:32;;;;;;;2.10;0.60;;;;;;;27.21;99.53;98108.97;15277564;19;20040;-56
2022/06/27 13:01:40;;;;;;;1.85;0.60;;;;;;;26.97;99.96;98115.06;15281966;19;20480;-57
2022/06/27 13:06:45;;;;;;;1.02;0.70;;;;;;;26.72;100.00;98129.63;15282498;19;20019;-57
2022/06/27 13:11:50;;;;;;;1.17;0.55;;;;;;;26.70;100.00;98135.47;15273175;19;20439;-57
2022/06/27 13:17:02;;;;;;;1.80;0.73;;;;;;;26.54;100.00;98150.34;15279925;19;20010;-57
2022/06/27 13:22:07;;;;;;;1.73;0.55;;;;;;;26.40;100.00;98145.31;15281168;19;20025;-56
2022/06/27 13:27:12;;;;;;;1.10;0.65;;;;;;;26.27;100.00;98145.88;15279342;19;20013;-57
2022/06/27 13:32:20;;;;;;;1.75;0.60;;;;;;;26.27;100.00;98148.63;15279056;19;20003;-53
2022/06/27 13:37:24;;;;;;;4.25;0.80;;;;;;;26.34;100.00;98156.66;15277521;19;20018;-57
2022/06/27 13:42:51;;;;;;;1.67;0.70;;;;;;;26.40;100.00;98170.19;15271216;19;20023;-58
2022/06/27 13:48:01;;;;;;;2.97;0.70;;;;;;;26.41;100.00;98158.03;15277513;19;20022;-57
2022/06/27 13:53:06;;;;;;;2.97;0.70;;;;;;;26.33;100.00;98177.09;15279037;19;20083;-56
2022/06/27 13:58:12;;;;;;;0.77;0.70;;;;;;;26.28;100.00;98162.16;15275640;19;20555;-58
2022/06/27 14:03:28;;;;;;;2.15;0.60;;;;;;;25.96;100.00;98185.19;15270720;19;20011;-55
2022/06/27 14:08:34;;;;;;;0.85;0.70;;;;;;;25.91;100.00;98181.56;15276514;19;20021;-54
2022/06/27 14:13:40;;;;;;;2.65;0.77;;;;;;;25.94;100.00;98187.38;15270401;19;20064;-56
2022/06/27 14:18:48;;;;;;;3.10;0.70;;;;;;;26.04;100.00;98191.28;15274082;19;20006;-57
2022/06/27 14:23:53;;;;;;;2.30;0.80;;;;;;;25.93;100.00;98182.13;15275255;19;20028;-58
2022/06/27 14:28:57;;;;;;;2.95;0.80;;;;;;;25.90;100.00;98177.97;15275959;19;20015;-57
2022/06/27 14:34:05;;;;;;;2.72;0.70;;;;;;;26.75;100.00;98165.84;15270014;19;20018;-57
2022/06/27 14:39:10;;;;;;;1.63;0.63;;;;;;;26.60;100.00;98165.84;15272990;19;20011;-56
2022/06/27 14:44:18;;;;;;;2.10;0.52;;;;;;;27.27;100.00;98162.34;15272584;19;20014;-56
2022/06/27 14:49:25;;;;;;;1.10;0.70;;;;;;;27.29;100.00;98151.78;15270474;19;20006;-57
2022/06/27 14:54:30;;;;;;;2.75;0.65;;;;;;;27.94;97.06;98156.69;15273846;19;20022;-57
2022/06/27 14:59:36;;;;;;;2.08;0.60;;;;;;;27.82;98.65;98174.44;15272059;19;20404;-56
2022/06/27 15:04:44;;;;;;;1.27;0.50;;;;;;;27.69;91.54;98159.22;15265774;19;20505;-56
2022/06/27 15:09:49;;;;;;;3.72;0.60;;;;;;;27.90;89.58;98161.13;15271602;19;20667;-57
2022/06/27 15:14:55;;;;;;;2.10;0.50;;;;;;;28.23;83.34;98156.88;15274736;19;20010;-58
2022/06/27 15:20:03;;;;;;;1.88;0.60;;;;;;;28.03;80.71;98157.75;15266041;19;20551;-56
2022/06/27 15:25:09;;;;;;;0.95;0.45;;;;;;;27.32;87.61;98152.09;15267190;19;20035;-52
2022/06/27 15:30:15;;;;;;;0.93;0.32;;;;;;;26.76;90.02;98142.63;15267423;19;20263;-55
2022/06/27 15:35:30;;;;;;;2.25;0.50;;;;;;;26.54;87.83;98164.16;15278063;19;20027;-54
2022/06/27 15:40:36;;;;;;;5.40;0.50;;;;;;;26.46;89.74;98166.34;15282393;19;20109;-55
2022/06/27 15:45:42;;;;;;;1.48;0.40;;;;;;;26.23;81.78;98164.06;15289274;19;20053;-52
2022/06/27 15:50:50;;;;;;;1.17;0.35;;;;;;;26.06;76.27;98173.34;15275877;19;20085;-55
2022/06/27 15:55:55;;;;;;;1.02;0.30;;;;;;;26.11;76.30;98186.34;15285419;19;20021;-55
2022/06/27 16:01:00;;;;;;;0.75;0.32;;;;;;;26.10;76.99;98190.25;15283979;19;20058;-55
2022/06/27 16:06:08;;;;;;;1.67;0.50;;;;;;;26.04;77.21;98196.78;15285949;19;20810;-56
2022/06/27 16:11:14;;;;;;;2.65;0.40;;;;;;;26.40;78.28;98203.31;15278105;19;20034;-55
2022/06/27 16:16:19;;;;;;;2.63;0.47;;;;;;;27.11;70.83;98217.63;15283406;19;20022;-53
2022/06/27 16:21:27;;;;;;;0.50;0.30;;;;;;;27.39;68.66;98220.97;15278959;19;20007;-58
2022/06/27 16:26:32;;;;;;;1.15;0.50;;;;;;;27.57;68.81;98227.06;15282955;19;20018;-61
2022/06/27 16:31:44;;;;;;;0.88;0.45;;;;;;;27.51;70.63;98237.31;15284338;19;20026;-57
2022/06/27 16:36:52;;;;;;;1.65;0.40;;;;;;;27.83;69.77;98241.69;15282210;19;20090;-57
2022/06/27 16:47:15;;;;;;;0.40;0.40;;;;;;;27.62;75.41;98247.25;15280529;19;20027;-55
2022/06/27 16:52:22;;;;;;;2.85;0.50;;;;;;;27.18;81.60;98247.78;15279471;19;20015;-55
2022/06/27 16:57:28;;;;;;;0.98;0.40;;;;;;;27.12;82.19;98254.38;15272663;19;20031;-56
2022/06/27 17:02:33;;;;;;;2.17;0.70;;;;;;;26.97;83.33;98247.75;15277127;19;20704;-58
2022/06/27 17:07:41;;;;;;;2.05;0.50;;;;;;;27.14;84.13;98252.19;15281114;19;20357;-54
2022/06/27 17:12:46;;;;;;;0.88;0.40;;;;;;;27.17;86.09;98251.66;15280939;19;20011;-60
2022/06/27 17:17:51;;;;;;;1.88;0.45;;;;;;;26.98;88.00;98249.41;15271925;19;20086;-60
2022/06/27 17:22:59;;;;;;;1.73;0.50;;;;;;;26.84;91.29;98253.78;15279366;19;20022;-63
2022/06/27 17:28:05;;;;;;;1.58;0.60;;;;;;;26.54;97.36;98255.31;15274299;19;20480;-59
2022/06/27 17:33:11;;;;;;;0.98;0.43;;;;;;;26.26;100.00;98266.50;15279208;19;20468;-57
2022/06/27 17:38:19;;;;;;;0.75;0.50;;;;;;;25.93;100.00;98278.72;15285411;19;20018;-60
2022/06/27 17:43:24;;;;;;;0.95;0.50;;;;;;;25.66;100.00;98290.66;15282323;19;20017;-55
2022/06/27 17:48:34;;;;;;;1.48;0.50;;;;;;;25.43;100.00;98292.69;15272420;19;20021;-55
2022/06/27 17:53:41;;;;;;;1.58;0.55;;;;;;;25.22;100.00;98306.25;15276045;19;20019;-58
2022/06/27 17:58:52;;;;;;;1.83;0.60;;;;;;;24.92;100.00;98302.06;15270201;19;20017;-59
2022/06/27 18:04:01;;;;;;;0.85;0.60;;;;;;;24.85;100.00;98319.88;15275536;19;20057;-54
2022/06/27 18:09:09;;;;;;;1.00;0.70;;;;;;;24.79;100.00;98316.22;15277662;19;20040;-63
2022/06/27 18:14:14;;;;;;;0.73;0.50;;;;;;;24.74;100.00;98318.94;15281609;19;20010;-57
2022/06/27 18:19:19;;;;;;;1.13;0.50;;;;;;;24.71;100.00;98313.94;15270185;19;20047;-55
2022/06/27 18:30:17;;;;;;;1.85;0.55;;;;;;;24.71;100.00;98319.44;15270215;19;19987;-58
2022/06/27 18:35:43;;;;;;;2.00;0.60;;;;;;;24.57;100.00;98346.50;15274424;19;20022;-59
2022/06/27 18:40:48;;;;;;;2.38;0.70;;;;;;;24.36;100.00;98348.13;15274587;19;20385;-60
2022/06/27 18:45:55;;;;;;;1.83;0.50;;;;;;;24.24;100.00;98367.50;15276648;19;20014;-59
2022/06/27 18:51:01;;;;;;;0.57;0.45;;;;;;;24.05;100.00;98388.97;15272260;19;20367;-59
2022/06/27 18:56:06;;;;;;;1.83;0.47;;;;;;;23.83;100.00;98403.41;15275918;19;20429;-58
2022/06/27 19:01:14;;;;;;;0.85;0.50;;;;;;;23.59;100.00;98411.78;15276961;19;20019;-57
2022/06/27 19:06:19;;;;;;;3.45;0.50;;;;;;;23.35;100.00;98413.81;15268765;19;20017;-53
2022/06/27 19:11:24;;;;;;;0.60;0.40;;;;;;;23.24;100.00;98416.38;15266538;19;20018;-57
2022/06/27 19:16:32;;;;;;;2.53;0.60;;;;;;;23.12;100.00;98409.19;15266371;19;20011;-55
2022/06/27 19:21:37;;;;;;;1.42;0.40;;;;;;;22.95;100.00;98415.47;15262725;19;20022;-57
2022/06/27 19:26:42;;;;;;;3.60;0.50;;;;;;;22.77;100.00;98409.03;15267455;19;20121;-51
2022/06/27 19:31:51;;;;;;;1.73;0.40;;;;;;;22.59;100.00;98409.19;15251661;19;20014;-58
2022/06/27 19:36:56;;;;;;;1.73;0.43;;;;;;;22.47;100.00;98399.06;15268613;19;20027;-56
2022/06/27 19:42:02;;;;;;;1.95;0.50;;;;;;;22.35;100.00;98422.03;15271028;19;20429;-55
2022/06/27 19:47:10;;;;;;;1.05;0.50;;;;;;;22.25;100.00;98428.97;15272840;19;20468;-59
2022/06/27 19:52:15;;;;;;;0.85;0.50;;;;;;;22.14;100.00;98433.38;15272008;19;20022;-57
2022/06/27 19:57:19;;;;;;;0.40;0.40;;;;;;;22.05;100.00;98436.69;15264982;19;20536;-63
2022/06/27 20:02:43;;;;;;;0.50;0.40;;;;;;;22.02;100.00;98466.28;15270548;19;20019;-60
2022/06/27 20:07:48;;;;;;;2.70;0.63;;;;;;;21.98;100.00;98477.94;15266340;19;20023;-61
2022/06/27 20:12:55;;;;;;;0.50;0.50;;;;;;;21.95;100.00;98501.22;15270553;19;20014;-57
2022/06/27 20:18:02;;;;;;;1.23;0.57;;;;;;;21.93;100.00;98491.56;15269561;19;20043;-57
2022/06/27 20:23:28;;;;;;;0.65;0.43;;;;;;;21.91;100.00;98479.97;15279690;19;20081;-57
2022/06/27 20:28:33;;;;;;;3.38;0.60;;;;;;;21.84;100.00;98483.63;15278147;19;20480;-55
2022/06/27 20:33:42;;;;;;;5.85;0.60;;;;;;;21.66;100.00;98508.38;15279768;19;20039;-59
2022/06/27 20:38:47;;;;;;;1.95;0.60;;;;;;;21.52;100.00;98524.13;15279876;19;20018;-55
2022/06/27 20:43:59;;;;;;;1.48;0.70;;;;;;;21.53;100.00;98525.78;15274353;19;20014;-54
2022/06/27 20:49:08;;;;;;;3.33;0.70;;;;;;;21.52;100.00;98508.50;15280724;19;20035;-58
2022/06/27 20:54:13;;;;;;;2.58;0.70;;;;;;;21.19;100.00;98515.25;15278464;19;20786;-54
2022/06/27 20:59:18;;;;;;;2.30;0.93;;;;;;;20.47;100.00;98474.66;15274023;19;20018;-55
2022/06/27 21:04:25;;;;;;;1.90;0.88;;;;;;;20.08;100.00;98419.22;15274907;19;20014;-56
2022/06/27 21:14:48;;;;;;;1.42;0.90;;;;;;;19.55;100.00;98424.00;15274336;19;20091;-55
2022/06/27 21:19:56;;;;;;;1.58;1.00;;;;;;;19.49;100.00;98452.19;15276552;19;20022;-57
2022/06/27 21:25:00;;;;;;;1.17;1.05;;;;;;;19.32;100.00;98477.28;15281033;19;20007;-58
2022/06/27 21:30:07;;;;;;;1.67;0.90;;;;;;;19.28;100.00;98524.38;15280414;19;20847;-58
2022/06/27 21:35:14;;;;;;;1.60;1.20;;;;;;;19.26;100.00;98519.09;15279612;19;20014;-58
2022/06/27 21:40:19;;;;;;;1.85;1.00;;;;;;;19.24;100.00;98548.53;15277511;19;20018;-58
2022/06/27 21:45:24;;;;;;;3.55;0.98;;;;;;;19.20;100.00;98591.00;15275036;19;20018;-56
2022/06/27 21:50:32;;;;;;;1.40;1.05;;;;;;;19.21;100.00;98574.38;15281388;19;20018;-56
2022/06/27 21:55:37;;;;;;;1.27;0.90;;;;;;;19.19;100.00;98567.47;15280489;19;20018;-55
2022/06/27 22:00:44;;;;;;;1.88;1.20;;;;;;;19.20;100.00;98582.81;15277676;19;20022;-57
2022/06/27 22:05:52;;;;;;;3.33;1.20;;;;;;;19.23;100.00;98576.88;15276292;19;20030;-56
2022/06/27 22:10:57;;;;;;;1.30;1.10;;;;;;;19.28;100.00;98582.56;15279691;19;20010;-57
2022/06/27 22:16:02;;;;;;;3.42;1.05;;;;;;;19.34;100.00;98605.44;15273755;19;20023;-58
2022/06/27 22:21:10;;;;;;;1.85;1.25;;;;;;;19.31;100.00;98601.25;15278805;19;20035;-54
2022/06/27 22:26:18;;;;;;;2.13;1.45;;;;;;;19.24;100.00;98597.69;15278905;19;20010;-51
2022/06/27 22:31:24;;;;;;;1.92;1.65;;;;;;;19.21;100.00;98620.00;15277305;19;20014;-55
2022/06/27 22:36:31;;;;;;;2.83;1.70;;;;;;;19.25;100.00;98643.06;15273270;19;20459;-55
2022/06/27 22:41:37;;;;;;;2.10;2.00;;;;;;;19.20;100.00;98629.22;15272100;19;20035;-55
2022/06/27 22:46:42;;;;;;;2.90;2.50;;;;;;;19.20;100.00;98618.31;15274445;19;20394;-56
2022/06/27 22:51:50;;;;;;;2.90;2.60;;;;;;;19.14;100.00;98625.47;15269012;19;20051;-55
2022/06/27 22:56:55;;;;;;;3.72;2.58;;;;;;;19.13;100.00;98631.13;15277347;19;20824;-56
2022/06/27 23:02:00;;;;;;;2.65;2.40;;;;;;;19.08;100.00;98659.91;15274077;19;20039;-52
2022/06/27 23:07:08;;;;;;;4.68;3.10;;;;;;;18.94;100.00;98686.34;15277027;19;20022;-57
2022/06/27 23:12:13;;;;;;;3.17;2.88;;;;;;;18.87;100.00;98704.59;15269394;19;20515;-52
2022/06/27 23:17:18;;;;;;;5.88;3.20;;;;;;;18.85;100.00;98730.44;15275230;19;20467;-52
2022/06/27 23:22:26;;;;;;;4.00;3.70;;;;;;;18.77;100.00;98742.38;15267296;19;20102;-52
2022/06/27 23:27:31;;;;;;;3.67;3.38;;;;;;;18.74;100.00;98746.38;15275087;19;20695;-53
2022/06/27 23:32:36;;;;;;;3.72;3.42;;;;;;;18.76;100.00;98732.50;15274868;19;20010;-51
2022/06/27 23:37:44;;;;;;;3.38;3.08;;;;;;;18.73;100.00;98736.50;15274172;19;20061;-56
2022/06/27 23:42:49;;;;;;;3.58;3.28;;;;;;;18.70;100.00;98717.81;15267770;19;20031;-50
2022/06/27 23:47:54;;;;;;;4.10;3.70;;;;;;;18.66;100.00;98716.53;15269945;19;20039;-50
2022/06/27 23:53:02;;;;;;;4.15;3.50;;;;;;;18.56;100.00;98705.16;15265431;19;20028;-50
2022/06/27 23:58:07;;;;;;;3.88;3.53;;;;;;;18.54;100.00;98701.81;15287547;19;20027;-50
